Time;durP1;ratioP1;P1;durP2;ratioP2;P2;SDS_P1;SDS_P2;PMS_P1;PMS_P2;Temp;Humidity;BMP_temperature;BMP_pressure;BME280_temperature;BME280_humidity;BME280_pressure;Samples;Min_cycle;Max_cycle;Signal;HPM_P1;HPM_P2
2023/04/01 00:01:14;;;;;;;6.17;2.50;;;9.20;99.90;;;-141.84;90.05;19429.75;5069265;28;20224;-52
2023/04/01 00:03:45;;;;;;;3.60;2.30;;;9.20;99.90;;;-141.84;90.03;19452.09;5069559;28;20224;-55
2023/04/01 00:06:16;;;;;;;3.30;2.23;;;9.10;99.90;;;-141.84;90.30;19437.88;5069299;28;20290;-53
2023/04/01 00:08:45;;;;;;;4.43;2.30;;;9.10;99.90;;;-141.84;90.00;19429.75;5069873;28;20307;-53
2023/04/01 00:11:14;;;;;;;4.37;2.47;;;9.10;99.90;;;-141.84;90.09;19423.66;5069386;28;20295;-53
2023/04/01 00:13:43;;;;;;;3.40;2.13;;;9.10;99.90;;;-141.84;90.54;19403.31;5069963;28;20196;-54
2023/04/01 00:16:12;;;;;;;3.77;2.00;;;9.10;99.90;;;-141.84;90.98;19423.66;5068954;28;20722;-53
2023/04/01 00:18:52;;;;;;;3.97;2.10;;;9.10;99.90;;;-141.84;91.60;19435.84;5066821;28;20728;-51
2023/04/01 00:21:21;;;;;;;4.07;2.20;;;9.10;99.90;;;-141.84;91.94;19417.56;5049548;28;20252;-52
2023/04/01 00:23:51;;;;;;;3.67;2.00;;;9.00;99.90;;;-141.84;92.41;19419.59;5061767;28;20608;-53
2023/04/01 00:26:21;;;;;;;4.57;2.43;;;9.00;99.90;;;-141.84;92.67;19443.97;5069427;28;20223;-52
2023/04/01 00:28:50;;;;;;;4.03;1.87;;;9.10;99.90;;;-141.84;92.61;19413.47;5070179;28;20182;-52
2023/04/01 00:31:19;;;;;;;3.13;1.90;;;9.00;99.90;;;-141.84;93.01;19395.19;5069072;28;20232;-52
2023/04/01 00:33:47;;;;;;;2.93;2.00;;;9.10;99.90;;;-141.84;93.25;19411.44;5071878;28;20755;-52
2023/04/01 00:36:21;;;;;;;3.40;2.03;;;9.00;99.90;;;-141.84;92.71;19433.81;5089417;28;20224;-52
2023/04/01 00:38:50;;;;;;;2.80;2.00;;;9.10;99.90;;;-141.84;92.20;19431.78;5082097;28;20244;-55
2023/04/01 00:41:21;;;;;;;4.67;2.00;;;9.10;99.90;;;-141.84;92.15;19419.59;5069109;28;20954;-52
2023/04/01 00:43:52;;;;;;;2.37;1.77;;;9.10;99.90;;;-141.84;92.08;19389.09;5069880;28;20247;-53
2023/04/01 00:46:20;;;;;;;3.97;2.00;;;9.00;99.90;;;-141.84;92.79;19403.31;5068922;28;20303;-54
2023/04/01 00:48:54;;;;;;;3.80;2.00;;;9.00;99.90;;;-141.84;93.26;19378.94;5069563;28;20224;-56
2023/04/01 00:51:30;;;;;;;3.67;2.10;;;9.00;99.90;;;-141.84;93.81;19383.00;5069177;28;20231;-55
2023/04/01 00:54:01;;;;;;;2.03;1.63;;;9.00;99.90;;;-141.84;94.00;19385.03;5069169;28;20228;-51
2023/04/01 00:56:35;;;;;;;3.10;1.70;;;9.00;99.90;;;-141.84;94.22;19362.69;5068991;28;20286;-53
2023/04/01 00:59:10;;;;;;;2.87;2.03;;;9.00;99.90;;;-141.84;94.74;19352.53;5069226;28;20601;-54
2023/04/01 01:01:39;;;;;;;3.43;1.90;;;9.00;99.90;;;-141.84;94.89;19346.44;5069099;28;20192;-50
2023/04/01 01:04:07;;;;;;;2.83;1.87;;;9.00;99.90;;;-141.84;94.63;19366.75;5069174;28;20256;-52
2023/04/01 01:06:52;;;;;;;3.33;2.10;;;9.00;99.90;;;-141.84;94.13;19378.94;5068884;28;20233;-52
2023/04/01 01:09:36;;;;;;;4.50;2.00;;;9.00;99.90;;;-141.84;93.97;19370.81;5068931;28;20220;-55
2023/04/01 01:12:14;;;;;;;3.80;1.90;;;9.00;99.90;;;-141.84;93.82;19358.63;5069038;28;20750;-54
2023/04/01 01:15:01;;;;;;;3.70;2.30;;;9.00;99.90;;;-141.84;93.70;19374.88;5068729;28;20592;-52
2023/04/01 01:17:48;;;;;;;3.33;1.90;;;9.00;99.90;;;-141.84;93.62;19401.28;5068948;28;20224;-56
2023/04/01 01:21:00;;;;;;;4.17;2.13;;;9.00;99.90;;;-141.84;93.90;19356.59;5070124;28;20251;-54
2023/04/01 01:24:09;;;;;;;2.00;1.80;;;9.10;99.90;;;-141.84;94.00;19362.69;5072407;28;20719;-54
2023/04/01 01:26:58;;;;;;;2.50;1.50;;;9.00;99.90;;;-141.84;94.45;19368.78;5072841;28;20601;-51
2023/04/01 01:29:46;;;;;;;2.10;1.50;;;9.00;99.90;;;-141.84;94.69;19326.09;5072605;28;20224;-54
2023/04/01 01:32:31;;;;;;;4.03;1.83;;;9.00;99.90;;;-141.84;94.89;19356.59;5052629;28;20276;-53
2023/04/01 01:35:17;;;;;;;2.73;1.70;;;9.00;99.90;;;-141.84;94.78;19380.97;5059752;28;20547;-50
2023/04/01 01:37:49;;;;;;;4.63;1.97;;;9.00;99.90;;;-141.84;95.13;19348.47;5072756;28;20208;-49
2023/04/01 01:40:19;;;;;;;2.70;1.70;;;9.00;99.90;;;-141.84;95.04;19346.44;5072442;28;20228;-51
2023/04/01 01:42:52;;;;;;;1.87;1.53;;;9.00;99.90;;;-141.84;94.86;19340.31;5072499;28;20236;-51
2023/04/01 01:45:26;;;;;;;3.50;1.87;;;9.00;99.90;;;-141.84;94.85;19328.13;5071908;28;20617;-52
2023/04/01 01:47:57;;;;;;;3.23;1.97;;;9.00;99.90;;;-141.84;95.20;19370.81;5072418;28;20233;-53
2023/04/01 01:50:29;;;;;;;2.67;1.80;;;9.00;99.90;;;-141.84;94.81;19348.47;5072428;28;20251;-51
2023/04/01 01:53:06;;;;;;;3.60;1.80;;;9.00;99.90;;;-141.84;94.72;19338.28;5072505;28;20193;-52
2023/04/01 01:55:37;;;;;;;3.77;2.10;;;9.00;99.90;;;-141.84;94.88;19362.69;5072429;28;20590;-52
2023/04/01 01:58:15;;;;;;;2.10;1.70;;;9.00;99.90;;;-141.84;94.63;19378.94;5072123;28;20644;-53
2023/04/01 02:00:49;;;;;;;2.97;2.20;;;9.00;99.90;;;-141.84;94.26;19370.81;5071671;28;20677;-52
2023/04/01 02:03:22;;;;;;;4.53;2.10;;;9.00;99.90;;;-141.84;93.94;19364.72;5071957;28;20552;-54
2023/04/01 02:05:56;;;;;;;3.00;1.80;;;9.10;99.90;;;-141.84;92.65;19362.69;5071896;28;20228;-54
2023/04/01 02:08:33;;;;;;;4.17;2.13;;;9.10;99.90;;;-141.84;92.38;19399.25;5071850;28;20220;-53
2023/04/01 02:11:07;;;;;;;3.80;2.23;;;9.10;99.90;;;-141.84;91.87;19383.00;5072265;28;20181;-52
2023/04/01 02:13:47;;;;;;;3.90;2.30;;;9.10;99.90;;;-141.84;91.87;19385.03;5071494;28;20212;-55
2023/04/01 02:16:21;;;;;;;3.00;2.07;;;9.10;99.90;;;-141.84;92.20;19383.00;5071134;28;20228;-54
2023/04/01 02:18:54;;;;;;;4.57;2.23;;;9.10;99.90;;;-141.84;91.12;19421.63;5071638;28;20224;-53
2023/04/01 02:21:31;;;;;;;2.37;1.90;;;9.20;99.90;;;-141.84;90.19;19433.81;5058344;28;20229;-52
2023/04/01 02:24:03;;;;;;;2.30;2.10;;;9.20;99.90;;;-141.84;89.91;19425.69;5065456;28;20259;-51
2023/04/01 02:26:31;;;;;;;4.23;1.93;;;9.20;99.90;;;-141.84;90.48;19433.81;5075710;28;20451;-51
2023/04/01 02:29:03;;;;;;;4.23;1.90;;;9.20;99.90;;;-141.84;89.93;19413.47;5092123;28;20196;-52
2023/04/01 02:31:33;;;;;;;3.83;1.90;;;9.20;99.90;;;-141.84;89.87;19421.63;5082781;28;20217;-53
2023/04/01 02:34:03;;;;;;;2.97;1.80;;;9.20;99.90;;;-141.84;89.06;19411.44;5071227;28;20390;-52
2023/04/01 02:36:35;;;;;;;3.23;2.00;;;9.30;99.90;;;-141.84;88.96;19421.63;5071166;28;20319;-51
2023/04/01 02:39:05;;;;;;;2.43;1.70;;;9.30;99.90;;;-141.84;89.29;19409.41;5071501;28;20224;-52
2023/04/01 02:41:40;;;;;;;2.17;1.63;;;9.20;99.90;;;-141.84;88.95;19433.81;5071489;28;20228;-53
2023/04/01 02:44:09;;;;;;;3.37;1.80;;;9.30;99.90;;;-141.84;89.29;19439.91;5071352;28;20192;-52
2023/04/01 02:46:38;;;;;;;4.53;1.87;;;9.20;99.90;;;-141.84;89.65;19391.13;5071605;28;20756;-53
2023/04/01 02:49:07;;;;;;;2.53;1.67;;;9.20;99.90;;;-141.84;88.93;19425.69;5071032;28;20297;-49
2023/04/01 02:51:37;;;;;;;3.70;1.30;;;9.30;99.90;;;-141.84;88.02;19437.88;5070871;28;20228;-52
2023/04/01 02:54:05;;;;;;;4.37;1.60;;;9.30;99.90;;;-141.84;87.11;19437.88;5070913;28;20331;-53
2023/04/01 02:56:33;;;;;;;3.33;1.63;;;9.30;99.90;;;-141.84;87.08;19464.28;5070912;28;20688;-51
2023/04/01 02:59:01;;;;;;;3.10;1.57;;;9.30;99.90;;;-141.84;86.22;19454.13;5070996;28;20208;-49
2023/04/01 03:01:30;;;;;;;3.70;2.07;;;9.30;99.90;;;-141.84;86.56;19456.16;5071278;28;20212;-53
2023/04/01 03:03:58;;;;;;;4.07;1.57;;;9.40;99.90;;;-141.84;86.89;19460.22;5070951;28;20646;-54
2023/04/01 03:06:26;;;;;;;3.23;1.57;;;9.30;99.90;;;-141.84;87.54;19405.34;5070601;28;20243;-53
2023/04/01 03:08:56;;;;;;;3.07;1.53;;;9.30;99.90;;;-141.84;87.84;19431.78;5070591;28;20228;-51
2023/04/01 03:11:25;;;;;;;4.37;2.03;;;9.20;99.90;;;-141.84;87.45;19458.19;5070638;28;20956;-54
2023/04/01 03:13:54;;;;;;;3.00;1.50;;;9.30;99.90;;;-141.84;87.44;19415.50;5071046;28;20224;-54
2023/04/01 03:16:22;;;;;;;1.63;1.20;;;9.30;99.90;;;-141.84;87.83;19397.22;5070062;28;20228;-62
2023/04/01 03:18:52;;;;;;;3.30;1.57;;;9.20;99.90;;;-141.84;88.40;19405.34;5067457;28;20228;-63
2023/04/01 03:21:23;;;;;;;4.87;1.70;;;9.20;99.90;;;-141.84;88.62;19415.50;5061890;28;20232;-64
2023/04/01 03:23:52;;;;;;;3.23;1.73;;;9.20;99.90;;;-141.84;89.00;19405.34;5070291;28;20247;-63
2023/04/01 03:26:21;;;;;;;4.10;1.80;;;9.20;99.90;;;-141.84;89.02;19409.41;5070355;28;20220;-62
2023/04/01 03:28:49;;;;;;;3.10;1.50;;;9.20;99.90;;;-141.84;89.28;19411.44;5070977;28;20200;-62
2023/04/01 03:31:18;;;;;;;2.67;1.70;;;9.10;99.90;;;-141.84;89.32;19387.06;5069978;28;20232;-63
2023/04/01 03:33:48;;;;;;;1.80;1.50;;;9.10;99.90;;;-141.84;89.38;19407.38;5070152;28;20233;-63
2023/04/01 03:36:17;;;;;;;5.70;1.87;;;9.10;99.90;;;-141.84;89.21;19417.56;5070064;28;20235;-62
2023/04/01 03:38:46;;;;;;;2.40;1.80;;;9.10;99.90;;;-141.84;88.80;19378.94;5070217;28;20228;-62
2023/04/01 03:41:16;;;;;;;4.50;1.93;;;9.10;99.90;;;-141.84;88.98;19421.63;5069421;28;20201;-63
2023/04/01 03:43:46;;;;;;;4.53;2.23;;;9.10;99.90;;;-141.84;89.21;19439.91;5070555;28;20177;-61
2023/04/01 03:46:19;;;;;;;3.97;1.93;;;9.10;99.90;;;-141.84;89.50;19366.75;5069306;28;20235;-63
2023/04/01 03:48:47;;;;;;;4.23;1.90;;;9.10;99.90;;;-141.84;89.54;19413.47;5069865;28;20232;-63
2023/04/01 03:51:16;;;;;;;2.87;2.10;;;9.00;99.90;;;-141.84;89.77;19395.19;5069980;28;20236;-62
2023/04/01 03:53:44;;;;;;;5.07;2.30;;;9.00;99.90;;;-141.84;89.93;19393.16;5069693;28;20217;-62
2023/04/01 03:56:12;;;;;;;3.73;2.30;;;9.00;99.90;;;-141.84;90.29;19397.22;5069959;28;20189;-63
2023/04/01 03:58:40;;;;;;;3.77;2.40;;;9.00;99.90;;;-141.84;90.28;19380.97;5069921;28;20208;-62
2023/04/01 04:01:20;;;;;;;3.90;2.33;;;9.00;99.90;;;-141.84;90.59;19366.75;5069569;28;20235;-62
2023/04/01 04:03:49;;;;;;;3.53;2.70;;;9.00;99.90;;;-141.84;90.46;19383.00;5069693;28;20221;-62
2023/04/01 04:06:20;;;;;;;5.40;2.53;;;9.10;99.90;;;-141.84;90.61;19385.03;5069388;28;20258;-62
2023/04/01 04:08:48;;;;;;;4.03;2.77;;;9.00;99.90;;;-141.84;90.77;19374.88;5069295;28;20216;-62
2023/04/01 04:11:17;;;;;;;4.97;2.77;;;8.90;99.90;;;-141.84;89.87;19411.44;5069740;28;20223;-62
2023/04/01 04:13:47;;;;;;;3.57;2.67;;;9.00;99.90;;;-141.84;89.54;19385.03;5070032;28;20676;-62
2023/04/01 04:16:18;;;;;;;5.63;2.90;;;9.00;99.90;;;-141.84;90.00;19370.81;5069742;28;20232;-63
2023/04/01 04:18:46;;;;;;;3.20;2.83;;;8.90;99.90;;;-141.84;90.13;19362.69;5071497;28;20232;-62
2023/04/01 04:21:15;;;;;;;4.80;2.77;;;8.90;99.90;;;-141.84;89.70;19393.16;5065540;28;20229;-63
2023/04/01 04:23:44;;;;;;;4.10;3.03;;;9.00;99.90;;;-141.84;89.09;19395.19;5060848;28;20692;-61
2023/04/01 04:26:15;;;;;;;4.27;2.70;;;8.90;99.90;;;-141.84;89.22;19413.47;5069599;28;20217;-62
2023/04/01 04:28:44;;;;;;;3.07;2.27;;;8.90;99.90;;;-141.84;90.18;19368.78;5070028;28;20203;-64
2023/04/01 04:31:12;;;;;;;5.33;2.80;;;8.90;99.90;;;-141.84;90.81;19362.69;5069092;28;20225;-64
2023/04/01 04:33:41;;;;;;;2.70;2.43;;;8.90;99.90;;;-141.84;90.18;19421.63;5069425;28;20736;-63
2023/04/01 04:36:10;;;;;;;5.30;2.40;;;8.90;99.90;;;-141.84;90.52;19370.81;5069384;28;20224;-62
2023/04/01 04:38:38;;;;;;;3.67;2.20;;;8.90;99.90;;;-141.84;90.88;19354.56;5069275;28;20235;-62
2023/04/01 04:41:11;;;;;;;3.67;2.40;;;8.90;99.90;;;-141.84;91.19;19376.91;5069127;28;20216;-62
2023/04/01 04:43:40;;;;;;;6.17;2.30;;;8.90;99.90;;;-141.84;91.56;19334.22;5070210;28;20177;-62
2023/04/01 04:46:09;;;;;;;4.07;2.07;;;8.90;99.90;;;-141.84;91.80;19352.53;5068650;28;20236;-62
2023/04/01 04:48:37;;;;;;;3.97;2.30;;;8.80;99.90;;;-141.84;92.03;19342.34;5069400;28;20228;-62
2023/04/01 04:51:07;;;;;;;3.93;2.30;;;8.90;99.90;;;-141.84;92.16;19338.28;5069480;28;20228;-62
2023/04/01 04:53:35;;;;;;;3.00;2.03;;;8.80;99.90;;;-141.84;92.10;19364.72;5072946;28;20224;-63
2023/04/01 04:56:03;;;;;;;8.00;3.80;;;8.90;99.90;;;-141.84;91.18;19387.06;5073082;28;20195;-63
2023/04/01 04:58:31;;;;;;;3.67;2.37;;;8.90;99.90;;;-141.84;90.52;19380.97;5073936;28;20212;-63
2023/04/01 05:01:00;;;;;;;3.43;2.13;;;9.00;99.90;;;-141.84;90.51;19395.19;5073063;28;20232;-63
2023/04/01 05:03:28;;;;;;;3.70;2.00;;;9.00;99.90;;;-141.84;90.25;19387.06;5073302;28;20237;-62
2023/04/01 05:05:56;;;;;;;3.40;1.60;;;9.00;99.90;;;-141.84;90.33;19407.38;5072623;28;20228;-62
2023/04/01 05:08:26;;;;;;;4.83;2.33;;;9.00;99.90;;;-141.84;90.59;19399.25;5072992;28;20224;-62
2023/04/01 05:10:54;;;;;;;3.30;2.10;;;9.00;99.90;;;-141.84;90.44;19389.09;5073519;28;20220;-61
2023/04/01 05:13:23;;;;;;;2.97;2.07;;;9.00;99.90;;;-141.84;90.41;19374.88;5072671;28;20235;-61
2023/04/01 05:15:51;;;;;;;4.40;1.73;;;9.00;99.90;;;-141.84;90.67;19376.91;5081217;28;20226;-62
2023/04/01 05:18:19;;;;;;;2.43;1.80;;;9.00;99.90;;;-141.84;90.23;19383.00;5093220;28;20228;-62
2023/04/01 05:20:49;;;;;;;3.80;1.70;;;9.00;99.90;;;-141.84;90.07;19358.63;5065197;28;20240;-62
2023/04/01 05:23:17;;;;;;;1.90;1.40;;;9.00;99.90;;;-141.84;90.37;19380.97;5060737;28;20239;-62
2023/04/01 05:25:47;;;;;;;4.20;2.00;;;9.00;99.90;;;-141.84;90.74;19374.88;5072881;28;20204;-62
2023/04/01 05:28:16;;;;;;;4.13;2.00;;;9.10;99.90;;;-141.84;90.42;19370.81;5072388;28;20240;-62
2023/04/01 05:30:45;;;;;;;3.57;1.70;;;9.10;99.90;;;-141.84;90.07;19437.88;5071895;28;20221;-63
2023/04/01 05:33:14;;;;;;;2.57;1.50;;;9.20;99.90;;;-141.84;89.41;19405.34;5072307;28;20282;-63
2023/04/01 05:35:42;;;;;;;2.80;1.60;;;9.20;99.90;;;-141.84;89.02;19401.28;5072332;28;20224;-63
2023/04/01 05:38:10;;;;;;;2.93;1.67;;;9.30;99.90;;;-141.84;89.02;19395.19;5072427;28;20197;-63
2023/04/01 05:40:39;;;;;;;4.23;1.60;;;9.40;99.90;;;-141.84;87.73;19446.00;5072584;28;20232;-62
2023/04/01 05:43:08;;;;;;;4.53;1.77;;;9.50;99.90;;;-141.84;85.75;19468.34;5072160;28;20228;-64
2023/04/01 05:45:37;;;;;;;3.27;1.37;;;9.60;99.90;;;-141.84;84.60;19443.97;5071745;28;20747;-63
2023/04/01 05:48:05;;;;;;;2.33;1.30;;;9.70;99.90;;;-141.84;85.54;19456.16;5072102;28;20232;-63
2023/04/01 05:50:34;;;;;;;2.73;1.47;;;9.70;99.90;;;-141.84;85.42;19439.91;5072133;28;20217;-62
2023/04/01 05:53:02;;;;;;;2.80;1.40;;;9.70;99.90;;;-141.84;85.77;19456.16;5072507;28;20205;-61
2023/04/01 05:55:30;;;;;;;3.13;1.47;;;9.70;99.90;;;-141.84;86.11;19448.03;5072542;28;20203;-61
2023/04/01 05:57:59;;;;;;;5.07;1.50;;;9.70;99.90;;;-141.84;84.69;19458.19;5071951;28;20232;-62
2023/04/01 06:00:28;;;;;;;3.40;1.47;;;9.60;99.90;;;-141.84;84.85;19478.50;5071712;28;20231;-62
2023/04/01 06:02:59;;;;;;;1.87;1.17;;;9.60;99.90;;;-141.84;85.38;19427.72;5072005;28;20278;-62
2023/04/01 06:05:31;;;;;;;2.63;1.10;;;9.60;99.90;;;-141.84;84.60;19498.84;5071459;28;20221;-61
2023/04/01 06:08:06;;;;;;;3.47;1.70;;;9.70;99.90;;;-141.84;84.27;19484.59;5071748;28;20749;-62
2023/04/01 06:10:53;;;;;;;2.90;1.33;;;9.70;99.90;;;-141.84;84.51;19474.44;5073310;28;20223;-63
2023/04/01 06:13:44;;;;;;;1.90;1.50;;;9.70;99.90;;;-141.84;84.55;19488.69;5092278;28;20254;-62
2023/04/01 06:16:28;;;;;;;1.47;1.20;;;9.70;99.90;;;-141.84;85.11;19464.28;5076217;28;20231;-64
2023/04/01 06:19:12;;;;;;;3.40;1.20;;;9.70;99.90;;;-141.84;85.17;19456.16;5069356;28;20311;-62
2023/04/01 06:22:29;;;;;;;1.90;1.33;;;9.70;99.90;;;-141.84;84.93;19474.44;5052718;28;20236;-62
2023/04/01 06:25:35;;;;;;;2.10;1.30;;;9.80;99.90;;;-141.84;84.55;19502.91;5044031;28;20248;-63
2023/04/01 06:28:45;;;;;;;4.00;1.37;;;9.90;99.90;;;-141.84;83.92;19509.00;5035297;28;20236;-64
2023/04/01 06:31:36;;;;;;;3.97;1.80;;;9.90;99.90;;;-141.84;84.16;19478.50;5052120;28;20255;-63
2023/04/01 06:34:28;;;;;;;3.03;1.43;;;10.00;99.90;;;-141.84;83.55;19500.88;5052657;28;20234;-61
2023/04/01 06:37:24;;;;;;;3.20;1.37;;;10.00;99.90;;;-141.84;82.46;19506.97;5052485;28;20229;-63
2023/04/01 06:40:18;;;;;;;1.63;1.50;;;10.10;99.90;;;-141.84;81.67;19537.44;5052575;28;20320;-62
2023/04/01 06:43:10;;;;;;;1.93;1.30;;;10.20;99.90;;;-141.84;80.16;19578.09;5052226;28;20229;-62
2023/04/01 06:45:51;;;;;;;1.70;1.37;;;10.40;99.90;;;-141.84;80.57;19567.94;5063781;28;20291;-63
2023/04/01 06:48:46;;;;;;;4.00;1.60;;;10.40;99.90;;;-141.84;81.07;19602.47;5071842;28;20228;-62
2023/04/01 06:51:32;;;;;;;3.10;1.70;;;10.40;99.90;;;-141.84;80.88;19600.44;5072110;28;20224;-62
2023/04/01 06:54:10;;;;;;;2.27;1.50;;;10.50;99.90;;;-141.84;80.18;19600.44;5071245;28;20228;-65
2023/04/01 06:56:43;;;;;;;2.70;1.70;;;10.50;99.90;;;-141.84;79.11;19632.97;5067218;28;20320;-61
2023/04/01 06:59:18;;;;;;;2.87;1.50;;;10.60;99.90;;;-141.84;80.13;19588.25;5051906;28;20186;-63
2023/04/01 07:01:52;;;;;;;3.70;1.50;;;10.70;99.90;;;-141.84;78.89;19616.72;5052391;28;20189;-62
2023/04/01 07:04:28;;;;;;;4.13;1.70;;;10.80;99.90;;;-141.84;78.13;19659.38;5051998;28;20240;-64
2023/04/01 07:07:02;;;;;;;3.60;1.67;;;10.80;99.90;;;-141.84;77.48;19661.41;5068231;28;20271;-63
2023/04/01 07:09:40;;;;;;;2.83;1.83;;;11.00;99.90;;;-141.84;77.92;19671.56;5090346;28;20239;-64
2023/04/01 07:12:23;;;;;;;3.53;2.03;;;11.00;99.90;;;-141.84;77.90;19677.66;5091906;28;20932;-62
2023/04/01 07:14:57;;;;;;;1.90;1.67;;;11.00;99.90;;;-141.84;77.98;19663.44;5086507;28;20255;-61
2023/04/01 07:17:32;;;;;;;2.30;1.60;;;11.10;99.90;;;-141.84;78.18;19647.19;5070968;28;20228;-62
2023/04/01 07:20:12;;;;;;;2.57;1.60;;;11.40;99.90;;;-141.84;77.51;19693.94;5069860;28;20534;-63
2023/04/01 07:22:45;;;;;;;4.78;1.95;;;11.40;99.90;;;-141.84;75.43;19734.56;5054853;28;20698;-63
2023/04/01 07:25:17;;;;;;;2.60;1.70;;;11.60;99.90;;;-141.84;73.26;19789.44;5071263;28;20247;-61
2023/04/01 07:27:46;;;;;;;4.53;1.57;;;11.70;99.90;;;-141.84;71.31;19801.66;5071339;28;20220;-61
2023/04/01 07:30:18;;;;;;;2.00;1.30;;;11.80;99.90;;;-141.84;72.41;19830.09;5071158;28;20262;-62
2023/04/01 07:32:57;;;;;;;4.20;1.60;;;11.90;99.90;;;-141.84;72.12;19832.13;5071180;28;20229;-63
2023/04/01 07:35:39;;;;;;;2.83;1.50;;;11.90;99.90;;;-141.84;70.15;19834.16;5071324;28;20224;-63
2023/04/01 07:38:25;;;;;;;2.40;1.40;;;11.90;99.90;;;-141.84;70.24;19799.63;5071373;28;20177;-62
2023/04/01 07:41:07;;;;;;;2.60;1.27;;;11.90;99.90;;;-141.84;70.59;19807.75;5071753;28;20242;-62
2023/04/01 07:44:02;;;;;;;1.50;1.30;;;11.80;99.90;;;-141.84;71.18;19785.38;5071490;28;20207;-65
2023/04/01 07:46:59;;;;;;;2.60;1.85;;;11.70;99.90;;;-141.84;71.38;19787.41;5071148;28;20225;-63
2023/04/01 07:49:40;;;;;;;2.33;2.13;;;11.80;99.90;;;-141.84;69.99;19807.75;5071287;28;20294;-63
2023/04/01 07:52:25;;;;;;;3.50;2.60;;;11.70;99.90;;;-141.84;70.31;19856.53;5070863;28;20244;-62
2023/04/01 07:55:03;;;;;;;2.78;1.70;;;11.80;99.90;;;-141.84;69.69;19840.25;5062254;28;20220;-62
2023/04/01 07:57:41;;;;;;;3.05;1.80;;;11.90;99.90;;;-141.84;69.64;19880.91;5070832;28;20229;-63
2023/04/01 08:00:19;;;;;;;3.22;1.63;;;12.00;99.90;;;-141.84;68.89;19866.69;5070749;28;20224;-62
2023/04/01 08:03:15;;;;;;;3.72;1.80;;;12.10;99.90;;;-141.84;68.72;19850.41;5070586;28;20715;-62
2023/04/01 08:05:56;;;;;;;1.80;1.43;;;12.10;99.90;;;-141.84;69.17;19828.06;5089120;28;20243;-63
2023/04/01 08:08:41;;;;;;;1.73;1.20;;;12.00;99.90;;;-141.84;68.26;19838.22;5091109;28;20230;-62
2023/04/01 08:11:26;;;;;;;2.30;1.30;;;11.90;99.90;;;-141.84;69.46;19797.59;5091198;28;20188;-61
2023/04/01 08:14:10;;;;;;;2.13;1.20;;;11.80;99.90;;;-141.84;69.04;19805.72;5090860;28;20189;-62
2023/04/01 08:16:48;;;;;;;2.90;1.23;;;11.70;99.90;;;-141.84;68.98;19775.22;5069459;28;20212;-62
2023/04/01 08:19:32;;;;;;;2.80;1.30;;;11.60;99.90;;;-141.84;69.78;19797.59;5069486;28;20591;-64
2023/04/01 08:22:13;;;;;;;2.10;1.60;;;11.60;99.90;;;-141.84;68.49;19868.72;5050386;28;20720;-62
2023/04/01 08:24:44;;;;;;;2.87;1.40;;;11.70;99.90;;;-141.84;68.41;19824.00;5068828;28;20235;-63
2023/04/01 08:27:23;;;;;;;1.77;1.20;;;11.90;99.90;;;-141.84;68.22;19868.72;5068417;28;20230;-63
2023/04/01 08:29:58;;;;;;;2.05;1.20;;;12.00;99.90;;;-141.84;65.16;19917.50;5067043;28;20240;-64
2023/04/01 08:32:31;;;;;;;2.50;1.20;;;12.20;99.90;;;-141.84;66.10;19929.69;5067969;28;20235;-62
2023/04/01 08:35:10;;;;;;;1.58;1.23;;;12.30;99.90;;;-141.84;65.25;19962.19;5068615;28;20193;-63
2023/04/01 08:37:42;;;;;;;1.38;1.25;;;12.50;99.90;;;-141.84;64.78;19978.47;5069877;28;20683;-64
2023/04/01 08:40:40;;;;;;;2.73;1.30;;;12.60;99.90;;;-141.84;65.50;19990.66;5068933;28;20231;-62
2023/04/01 08:43:17;;;;;;;0.90;0.80;;;12.70;99.90;;;-141.84;64.32;19966.28;5068888;28;20236;-64
2023/04/01 08:46:18;;;;;;;3.00;1.20;;;12.70;99.90;;;-141.84;65.06;20019.13;5068785;28;20575;-64
2023/04/01 08:49:11;;;;;;;1.48;1.10;;;12.80;99.90;;;-141.84;64.46;19982.53;5067318;28;20315;-64
2023/04/01 08:52:25;;;;;;;1.90;1.20;;;12.80;99.90;;;-141.84;64.15;20000.81;5064807;28;20231;-64
2023/04/01 08:55:32;;;;;;;1.48;1.10;;;12.90;99.90;;;-141.84;62.51;19992.69;5065450;28;20224;-65
2023/04/01 08:58:35;;;;;;;1.17;1.00;;;12.90;99.90;;;-141.84;64.69;19939.84;5015525;28;20726;-64
2023/04/01 09:01:22;;;;;;;1.73;0.83;;;12.70;99.90;;;-141.84;65.16;19952.03;5061398;28;20220;-66
2023/04/01 09:04:40;;;;;;;1.08;0.88;;;12.70;99.90;;;-141.84;64.41;20015.03;5063808;28;20227;-63
2023/04/01 09:07:30;;;;;;;1.45;0.90;;;12.60;99.90;;;-141.84;64.11;19976.44;5066434;28;20227;-63
2023/04/01 09:10:40;;;;;;;2.28;0.82;;;12.70;99.90;;;-141.84;64.54;20015.03;5068854;28;20232;-65
2023/04/01 09:13:30;;;;;;;1.38;1.10;;;12.80;99.90;;;-141.84;64.38;20057.72;5069423;28;20228;-66
2023/04/01 09:16:28;;;;;;;1.52;0.98;;;12.90;99.90;;;-141.84;64.95;20010.97;5068935;28;20228;-63
2023/04/01 09:19:29;;;;;;;2.45;1.10;;;13.00;99.90;;;-141.84;64.69;20002.84;5069032;28;20557;-63
2023/04/01 09:22:21;;;;;;;2.22;1.02;;;12.90;99.90;;;-141.84;64.66;20047.56;5068750;28;20328;-63
2023/04/01 09:25:31;;;;;;;1.30;0.98;;;13.00;99.90;;;-141.84;62.98;20082.13;5048922;28;20248;-63
2023/04/01 09:28:12;;;;;;;1.38;0.70;;;13.30;99.90;;;-141.84;60.97;20143.09;5049317;28;20258;-63
2023/04/01 09:31:14;;;;;;;2.08;0.95;;;13.50;99.90;;;-141.84;61.61;20134.97;5048684;28;20232;-63
2023/04/01 09:34:28;;;;;;;2.28;1.40;;;13.60;99.90;;;-141.84;62.97;20110.56;5049157;28;20221;-63
2023/04/01 09:37:19;;;;;;;1.83;1.00;;;13.60;99.90;;;-141.84;63.56;20080.09;5048827;28;20229;-64
2023/04/01 09:40:11;;;;;;;1.52;0.85;;;13.60;99.90;;;-141.84;61.80;20098.38;5066121;28;20281;-64
2023/04/01 09:43:17;;;;;;;3.05;0.80;;;13.50;99.90;;;-141.84;62.45;20043.50;5072742;28;20229;-64
2023/04/01 09:45:59;;;;;;;1.02;0.93;;;13.20;99.90;;;-141.84;62.46;20019.13;5080131;28;20216;-63
2023/04/01 09:49:07;;;;;;;1.00;0.80;;;13.10;99.90;;;-141.84;61.62;20067.88;5092894;28;20252;-64
2023/04/01 09:51:46;;;;;;;1.55;0.88;;;13.10;99.90;;;-141.84;62.93;20063.81;5092458;28;20228;-64
2023/04/01 09:54:33;;;;;;;1.50;1.00;;;13.10;99.90;;;-141.84;63.50;20047.56;5092602;28;20219;-63
2023/04/01 09:57:43;;;;;;;0.80;0.80;;;13.20;99.90;;;-141.84;62.94;20098.38;5073188;28;20350;-64
2023/04/01 10:01:25;;;;;;;2.53;1.58;;;13.30;99.90;;;-141.84;62.29;20049.59;5072613;28;20224;-64
2023/04/01 10:04:32;;;;;;;1.00;0.90;;;13.40;99.90;;;-141.84;61.71;20094.31;5072426;28;20658;-65
2023/04/01 10:08:07;;;;;;;1.52;1.00;;;13.40;99.90;;;-141.84;63.29;20037.41;5071740;28;20232;-64
2023/04/01 10:11:16;;;;;;;2.00;1.00;;;13.20;99.90;;;-141.84;63.58;20021.16;5070707;28;20466;-65
2023/04/01 10:14:40;;;;;;;2.25;1.08;;;13.10;99.90;;;-141.84;63.92;19998.78;5072093;28;20545;-64
2023/04/01 10:17:39;;;;;;;4.30;1.58;;;12.90;99.90;;;-141.84;64.85;19966.28;5063171;28;20240;-65
2023/04/01 10:20:46;;;;;;;2.03;0.80;;;12.70;99.90;;;-141.84;66.34;19960.16;5068494;28;20189;-63
2023/04/01 10:23:38;;;;;;;2.33;1.00;;;12.60;99.90;;;-141.84;65.88;19958.13;5058906;28;20240;-66
2023/04/01 10:26:45;;;;;;;2.28;1.00;;;12.50;99.90;;;-141.84;66.66;19909.34;5062638;28;20246;-64
2023/04/01 10:29:42;;;;;;;1.43;0.90;;;12.40;99.90;;;-141.84;67.94;19876.84;5058052;28;20205;-65
2023/04/01 10:32:48;;;;;;;1.93;1.37;;;12.10;99.90;;;-141.84;68.60;19832.13;5065903;28;20613;-65
2023/04/01 10:35:46;;;;;;;1.63;1.10;;;12.10;99.90;;;-141.84;69.37;19895.13;5033323;28;20291;-66
2023/04/01 10:39:11;;;;;;;1.30;1.20;;;12.00;99.90;;;-141.84;69.76;19824.00;5059243;28;20255;-66
2023/04/01 10:42:30;;;;;;;2.70;1.70;;;12.00;99.90;;;-141.84;69.93;19856.53;5064931;28;20220;-66
2023/04/01 10:45:54;;;;;;;2.03;1.35;;;12.00;99.90;;;-141.84;70.36;19836.19;5061868;28;20240;-65
2023/04/01 10:49:11;;;;;;;2.05;1.38;;;12.00;99.90;;;-141.84;70.66;19832.13;5065808;28;20225;-65
2023/04/01 10:52:35;;;;;;;2.25;1.27;;;12.00;99.90;;;-141.84;69.04;19842.28;5063434;28;20644;-65
2023/04/01 10:55:37;;;;;;;1.53;1.37;;;12.00;99.90;;;-141.84;69.66;19838.22;5065944;28;20220;-65
2023/04/01 10:58:57;;;;;;;1.63;1.23;;;11.90;99.90;;;-141.84;70.34;19797.59;5063529;28;20223;-66
2023/04/01 11:02:37;;;;;;;1.47;1.20;;;11.80;99.90;;;-141.84;70.67;19834.16;5027628;28;20728;-65
2023/04/01 11:06:12;;;;;;;2.60;1.37;;;11.80;99.90;;;-141.84;70.47;19805.72;5041785;28;21108;-66